Time;durP1;ratioP1;P1;durP2;ratioP2;P2;SDS_P1;SDS_P2;PMS_P1;PMS_P2;Temp;Humidity;BMP_temperature;BMP_pressure;BME280_temperature;BME280_humidity;BME280_pressure;Samples;Min_cycle;Max_cycle;Signal;HPM_P1;HPM_P2
2023/09/30 00:01:09;;;;;;;;;;;;;;;-144.99;100.00;52380.84;5041039;28;20244;-74
2023/09/30 00:03:36;;;;;;;;;;;;;;;-144.99;100.00;52370.63;5039476;28;20086;-74
2023/09/30 00:06:03;;;;;;;;;;;;;;;-144.99;100.00;52407.31;5037798;28;20379;-75
2023/09/30 00:08:30;;;;;;;;;;;;;;;-144.99;100.00;52399.19;5040723;28;19961;-73
2023/09/30 00:10:56;;;;;;;;;;;;;;;-144.99;100.00;52427.72;5047131;28;20383;-76
2023/09/30 00:13:24;;;;;;;;;;;;;;;-144.99;100.00;52452.16;5045019;28;20338;-75
2023/09/30 00:15:51;;;;;;;;;;;;;;;-144.99;100.00;52444.03;5046921;28;20005;-72
2023/09/30 00:18:17;;;;;;;;;;;;;;;-144.99;100.00;52407.31;5048140;28;19987;-68
2023/09/30 00:20:44;;;;;;;;;;;;;;;-144.99;100.00;52435.88;5042186;28;20055;-71
2023/09/30 00:23:10;;;;;;;;;;;;;;;-144.99;100.00;52413.44;5043879;28;19941;-70
2023/09/30 00:25:39;;;;;;;;;;;;;;;-144.99;100.00;52391.03;5037895;28;20120;-69
2023/09/30 00:28:06;;;;;;;;;;;;;;;-144.99;100.00;52419.56;5044549;28;20012;-69
2023/09/30 00:30:34;;;;;;;;;;;;;;;-144.99;100.00;52411.41;5042178;28;20534;-69
2023/09/30 00:33:00;;;;;;;;;;;;;;;-144.99;100.00;52397.13;5038381;28;20217;-69
2023/09/30 00:35:27;;;;;;;;;;;;;;;-144.99;100.00;52399.19;5039918;28;20005;-73
2023/09/30 00:37:53;;;;;;;;;;;;;;;-144.99;100.00;52431.78;5040486;28;20029;-74
2023/09/30 00:40:19;;;;;;;;;;;;;;;-144.99;100.00;52411.41;5040852;28;19956;-67
2023/09/30 00:42:46;;;;;;;;;;;;;;;-144.99;100.00;52374.72;5038170;28;20486;-69
2023/09/30 00:45:12;;;;;;;;;;;;;;;-144.99;100.00;52419.56;5046302;28;20412;-70
2023/09/30 00:47:41;;;;;;;;;;;;;;;-144.99;100.00;52374.72;5038181;28;20040;-71
2023/09/30 00:50:10;;;;;;;;;;;;;;;-144.99;100.00;52386.94;5040803;28;19964;-68
2023/09/30 00:52:38;;;;;;;;;;;;;;;-144.99;100.00;52380.84;5040396;28;20245;-69
2023/09/30 00:55:05;;;;;;;;;;;;;;;-144.99;100.00;52403.25;5039223;28;20496;-70
2023/09/30 00:57:32;;;;;;;;;;;;;;;-144.99;100.00;52411.41;5038422;28;19954;-71
2023/09/30 00:59:59;;;;;;;;;;;;;;;-144.99;100.00;52395.09;5036025;28;20429;-69
2023/09/30 01:02:26;;;;;;;;;;;;;;;-144.99;100.00;52419.56;5034941;28;19988;-71
2023/09/30 01:04:56;;;;;;;;;;;;;;;-144.99;100.00;52393.06;5038225;28;19995;-69
2023/09/30 01:07:22;;;;;;;;;;;;;;;-144.99;100.00;52439.94;5034989;28;20048;-69
2023/09/30 01:09:50;;;;;;;;;;;;;;;-144.99;100.00;52378.78;5035412;28;20073;-69
2023/09/30 01:12:16;;;;;;;;;;;;;;;-144.99;100.00;52409.38;5035571;28;19944;-69
2023/09/30 01:14:43;;;;;;;;;;;;;;;-144.99;100.00;52395.09;5041599;28;19977;-69
2023/09/30 01:17:13;;;;;;;;;;;;;;;-144.99;100.00;52403.25;5044210;28;19947;-69
2023/09/30 01:19:39;;;;;;;;;;;;;;;-144.99;100.00;52427.72;5043870;28;19978;-69
2023/09/30 01:22:09;;;;;;;;;;;;;;;-144.99;100.00;52388.97;5045631;28;19979;-69
2023/09/30 01:24:39;;;;;;;;;;;;;;;-144.99;100.00;52431.78;5042568;28;19943;-69
2023/09/30 01:27:05;;;;;;;;;;;;;;;-144.99;100.00;52411.41;5037273;28;20344;-69
2023/09/30 01:29:32;;;;;;;;;;;;;;;-144.99;100.00;52403.25;5037452;28;20058;-69
2023/09/30 01:31:58;;;;;;;;;;;;;;;-144.99;100.00;52427.72;5038086;28;19944;-69
2023/09/30 01:34:25;;;;;;;;;;;;;;;-144.99;100.00;52403.25;5038421;28;19998;-67
2023/09/30 01:36:51;;;;;;;;;;;;;;;-144.99;100.00;52407.31;5036938;28;20014;-68
2023/09/30 01:39:19;;;;;;;;;;;;;;;-144.99;100.00;52423.63;5038037;28;20173;-67
2023/09/30 01:41:46;;;;;;;;;;;;;;;-144.99;100.00;52431.78;5037447;28;20050;-66
2023/09/30 01:44:12;;;;;;;;;;;;;;;-144.99;100.00;52391.03;5036984;28;20038;-66
2023/09/30 01:46:40;;;;;;;;;;;;;;;-144.99;100.00;52407.31;4752199;28;10000520;-66
2023/09/30 01:49:07;;;;;;;;;;;;;;;-144.99;100.00;52391.03;5043684;28;19999;-67
2023/09/30 01:51:33;;;;;;;;;;;;;;;-144.99;100.00;52403.25;5038835;28;20049;-69
2023/09/30 01:54:00;;;;;;;;;;;;;;;-144.99;100.00;52431.78;5036775;28;20065;-70
2023/09/30 01:56:28;;;;;;;;;;;;;;;-144.99;100.00;52431.78;5037412;28;19961;-63
2023/09/30 01:58:54;;;;;;;;;;;;;;;-144.99;100.00;52382.88;5035933;28;20024;-63
2023/09/30 02:01:22;;;;;;;;;;;;;;;-144.99;100.00;52401.22;5038908;28;20519;-61
2023/09/30 02:03:49;;;;;;;;;;;;;;;-144.99;100.00;52395.09;5043428;28;19947;-60
2023/09/30 02:06:15;;;;;;;;;;;;;;;-144.99;100.00;52399.19;5038947;28;19952;-63
2023/09/30 02:08:44;;;;;;;;;;;;;;;-144.99;100.00;52407.31;5040112;28;19947;-62
2023/09/30 02:11:13;;;;;;;;;;;;;;;-144.99;100.00;52380.84;5047709;23;20117;-64
2023/09/30 02:13:41;;;;;;;;;;;;;;;-144.99;100.00;52415.47;5040101;28;19940;-66
2023/09/30 02:16:12;;;;;;;;;;;;;;;-144.99;100.00;52386.94;5042863;28;19973;-66
2023/09/30 02:18:39;;;;;;;;;;;;;;;-144.99;100.00;52407.31;5037177;28;19965;-64
2023/09/30 02:21:05;;;;;;;;;;;;;;;-144.99;100.00;52413.44;5029534;28;19956;-64
2023/09/30 02:23:32;;;;;;;;;;;;;;;-144.99;100.00;52399.19;5028747;28;19950;-66
2023/09/30 02:25:58;;;;;;;;;;;;;;;-144.99;100.00;52407.31;5024930;28;19978;-65
2023/09/30 02:28:25;;;;;;;;;;;;;;;-144.99;100.00;52382.88;5020930;28;19945;-65
2023/09/30 02:30:53;;;;;;;;;;;;;;;-144.99;100.00;52431.78;5022069;28;20057;-64
2023/09/30 02:33:19;;;;;;;;;;;;;;;-144.99;100.00;52407.31;5021193;28;20297;-65
2023/09/30 02:35:46;;;;;;;;;;;;;;;-144.99;100.00;52425.66;5022806;28;19981;-65
2023/09/30 02:38:15;;;;;;;;;;;;;;;-144.99;100.00;52403.25;5023442;28;20340;-65
2023/09/30 02:40:46;;;;;;;;;;;;;;;-144.99;100.00;52419.56;5026158;28;20599;-64
2023/09/30 02:43:12;;;;;;;;;;;;;;;-144.99;100.00;52409.38;5026236;28;20006;-65
2023/09/30 02:45:39;;;;;;;;;;;;;;;-144.99;100.00;52407.31;5024436;28;20003;-65
2023/09/30 02:48:08;;;;;;;;;;;;;;;-144.99;100.00;52427.72;5024149;28;19942;-67
2023/09/30 02:50:34;;;;;;;;;;;;;;;-144.99;100.00;52395.09;5023253;28;20425;-68
2023/09/30 02:53:01;;;;;;;;;;;;;;;-144.99;100.00;52419.56;5021987;28;19994;-65
2023/09/30 02:55:27;;;;;;;;;;;;;;;-144.99;100.00;52415.47;5019308;28;19939;-65
2023/09/30 02:57:54;;;;;;;;;;;;;;;-144.99;100.00;52431.78;5029891;28;20033;-65
2023/09/30 03:00:24;;;;;;;;;;;;;;;-144.99;100.00;52419.56;5026050;28;19958;-66
2023/09/30 03:02:52;;;;;;;;;;;;;;;-144.99;100.00;52407.31;5025592;28;19945;-64
2023/09/30 03:05:20;;;;;;;;;;;;;;;-144.99;100.00;52464.41;5023222;28;19993;-66
2023/09/30 03:07:47;;;;;;;;;;;;;;;-144.99;100.00;52407.31;5027402;28;19938;-64
2023/09/30 03:10:19;;;;;;;;;;;;;;;-144.99;100.00;52419.56;5023447;28;19963;-62
2023/09/30 03:12:46;;;;;;;;;;;;;;;-144.99;100.00;52399.19;5024992;28;20000;-63
2023/09/30 03:15:13;;;;;;;;;;;;;;;-144.99;100.00;52407.31;5027276;28;20259;-63
2023/09/30 03:17:39;;;;;;;;;;;;;;;-144.99;100.00;52415.47;5030835;28;19976;-63
2023/09/30 03:20:12;;;;;;;;;;;;;;;-144.99;100.00;52399.19;5027880;28;19958;-62
2023/09/30 03:22:42;;;;;;;;;;;;;;;-144.99;100.00;52427.72;5028801;28;20034;-63
2023/09/30 03:25:09;;;;;;;;;;;;;;;-144.99;100.00;52403.25;5028339;28;19959;-69
2023/09/30 03:27:36;;;;;;;;;;;;;;;-144.99;100.00;52384.91;5025157;28;20306;-69
2023/09/30 03:30:03;;;;;;;;;;;;;;;-144.99;100.00;52417.53;5026467;28;19961;-68
2023/09/30 03:32:30;;;;;;;;;;;;;;;-144.99;100.00;52403.25;5025177;28;20265;-66
2023/09/30 03:34:59;;;;;;;;;;;;;;;-144.99;100.00;52407.31;5022380;28;20308;-68
2023/09/30 03:37:26;;;;;;;;;;;;;;;-144.99;100.00;52391.03;5024976;28;19942;-67
2023/09/30 03:39:54;;;;;;;;;;;;;;;-144.99;100.00;52423.63;5028817;28;19953;-68
2023/09/30 03:42:21;;;;;;;;;;;;;;;-144.99;100.00;52403.25;5029803;28;20061;-67
2023/09/30 03:44:48;;;;;;;;;;;;;;;-144.99;100.00;52419.56;5028404;28;19941;-69
2023/09/30 03:47:15;;;;;;;;;;;;;;;-144.99;100.00;52431.78;5029355;28;19985;-69
2023/09/30 03:49:42;;;;;;;;;;;;;;;-144.99;100.00;52407.31;5024218;28;19961;-68
2023/09/30 03:52:08;;;;;;;;;;;;;;;-144.99;100.00;52419.56;5021985;28;19962;-68
2023/09/30 03:54:35;;;;;;;;;;;;;;;-144.99;100.00;52382.88;5024480;28;19991;-68
2023/09/30 03:57:03;;;;;;;;;;;;;;;-144.99;100.00;52448.09;5022606;28;19947;-69
2023/09/30 03:59:30;;;;;;;;;;;;;;;-144.99;100.00;52386.94;5024729;28;20447;-68
2023/09/30 04:01:57;;;;;;;;;;;;;;;-144.99;100.00;52360.44;5023437;28;19950;-68
2023/09/30 04:04:24;;;;;;;;;;;;;;;-144.99;100.00;52403.25;5022514;28;19944;-68
2023/09/30 04:06:51;;;;;;;;;;;;;;;-144.99;100.00;52425.66;5026855;28;20507;-68
2023/09/30 04:09:17;;;;;;;;;;;;;;;-144.99;100.00;52407.31;5025630;28;20063;-68
2023/09/30 04:11:44;;;;;;;;;;;;;;;-144.99;100.00;52415.47;5022003;28;20058;-69
2023/09/30 04:14:12;;;;;;;;;;;;;;;-144.99;100.00;52395.09;5024385;28;19953;-68
2023/09/30 04:16:39;;;;;;;;;;;;;;;-144.99;100.00;52419.56;5024501;28;19997;-67
2023/09/30 04:19:07;;;;;;;;;;;;;;;-144.99;100.00;52419.56;5035012;28;19988;-68
2023/09/30 04:21:34;;;;;;;;;;;;;;;-144.99;100.00;52407.31;5029356;28;20572;-67
2023/09/30 04:24:00;;;;;;;;;;;;;;;-144.99;100.00;52456.25;5029010;28;19977;-67
2023/09/30 04:26:27;;;;;;;;;;;;;;;-144.99;100.00;52388.97;5022912;28;20438;-67
2023/09/30 04:28:54;;;;;;;;;;;;;;;-144.99;100.00;52419.56;5024180;28;19958;-69
2023/09/30 04:31:23;;;;;;;;;;;;;;;-144.99;100.00;52407.31;5021423;28;19960;-69
2023/09/30 04:33:51;;;;;;;;;;;;;;;-144.99;100.00;52423.63;5021972;28;19943;-61
2023/09/30 04:36:17;;;;;;;;;;;;;;;-144.99;100.00;52425.66;5018157;28;19946;-59
2023/09/30 04:38:44;;;;;;;;;;;;;;;-144.99;100.00;52456.25;5022237;28;19940;-62
2023/09/30 04:41:10;;;;;;;;;;;;;;;-144.99;100.00;52401.22;5026362;28;19963;-61
2023/09/30 04:43:39;;;;;;;;;;;;;;;-144.99;100.00;52415.47;5021651;28;19948;-61
2023/09/30 04:46:07;;;;;;;;;;;;;;;-144.99;100.00;52407.31;5030625;28;19956;-61
2023/09/30 04:48:34;;;;;;;;;;;;;;;-144.99;100.00;52411.41;5026975;28;19939;-62
2023/09/30 04:51:04;;;;;;;;;;;;;;;-144.99;100.00;52399.19;5022667;28;20454;-64
2023/09/30 04:53:31;;;;;;;;;;;;;;;-144.99;100.00;52441.97;5028501;28;19950;-67
2023/09/30 04:55:58;;;;;;;;;;;;;;;-144.99;100.00;52403.25;5024434;28;19947;-68
2023/09/30 04:58:25;;;;;;;;;;;;;;;-144.99;100.00;52431.78;5025536;28;19940;-69
2023/09/30 05:00:51;;;;;;;;;;;;;;;-144.99;100.00;52415.47;5022207;28;20044;-68
2023/09/30 05:03:19;;;;;;;;;;;;;;;-144.99;100.00;52407.31;5020494;28;20415;-68
2023/09/30 05:05:47;;;;;;;;;;;;;;;-144.99;100.00;52444.03;5021216;28;19986;-69
2023/09/30 05:08:14;;;;;;;;;;;;;;;-144.99;100.00;52407.31;5019371;28;19948;-70
2023/09/30 05:10:40;;;;;;;;;;;;;;;-144.99;100.00;52382.88;5021266;28;19961;-72
2023/09/30 05:13:07;;;;;;;;;;;;;;;-144.99;100.00;52399.19;5021270;28;19973;-70
2023/09/30 05:15:35;;;;;;;;;;;;;;;-144.99;100.00;52399.19;5021058;28;19941;-66
2023/09/30 05:18:01;;;;;;;;;;;;;;;-144.99;100.00;52452.16;5023164;28;19997;-67
2023/09/30 05:20:28;;;;;;;;;;;;;;;-144.99;100.00;52431.78;5027242;28;20011;-68
2023/09/30 05:22:56;;;;;;;;;;;;;;;-144.99;100.00;52399.19;5026834;28;19940;-67
2023/09/30 05:25:26;;;;;;;;;;;;;;;-144.99;100.00;52393.06;5027342;28;19997;-69
2023/09/30 05:27:52;;;;;;;;;;;;;;;-144.99;100.00;52433.81;5027563;28;19948;-69
2023/09/30 05:30:20;;;;;;;;;;;;;;;-144.99;100.00;52403.25;5021275;28;20053;-71
2023/09/30 05:32:46;;;;;;;;;;;;;;;-144.99;100.00;52397.13;5020211;28;20637;-70
2023/09/30 05:35:13;;;;;;;;;;;;;;;-144.99;100.00;52431.78;5021913;28;21818;-71
2023/09/30 05:37:40;;;;;;;;;;;;;;;-144.99;100.00;52427.72;5021721;28;19943;-69
2023/09/30 05:40:16;;;;;;;;;;;;;;;-144.99;100.00;52427.72;5024385;28;20055;-69
2023/09/30 05:42:43;;;;;;;;;;;;;;;-144.99;100.00;52439.94;5024207;28;19940;-68
2023/09/30 05:45:12;;;;;;;;;;;;;;;-144.99;100.00;52439.94;5022791;28;19956;-63
2023/09/30 05:47:38;;;;;;;;;;;;;;;-144.99;100.00;52444.03;5021297;28;20572;-64
2023/09/30 05:50:07;;;;;;;;;;;;;;;-144.99;100.00;52370.63;5030910;28;20036;-63
2023/09/30 05:52:34;;;;;;;;;;;;;;;-144.99;100.00;52431.78;5027236;28;20446;-65
2023/09/30 05:55:01;;;;;;;;;;;;;;;-144.99;100.00;52395.09;5027383;28;19939;-66
2023/09/30 05:57:29;;;;;;;;;;;;;;;-144.99;100.00;52395.09;5032011;28;19943;-67
2023/09/30 05:59:56;;;;;;;;;;;;;;;-144.99;100.00;52413.44;5023363;28;20055;-65
2023/09/30 06:02:23;;;;;;;;;;;;;;;-144.99;100.00;52419.56;5024333;28;20365;-67
2023/09/30 06:04:50;;;;;;;;;;;;;;;-144.99;100.00;52397.13;5014230;28;19941;-68
2023/09/30 06:07:19;;;;;;;;;;;;;;;-144.99;100.00;52427.72;5014127;28;19948;-65
2023/09/30 06:09:48;;;;;;;;;;;;;;;-144.99;100.00;52403.25;5016297;28;21922;-65
2023/09/30 06:12:14;;;;;;;;;;;;;;;-144.99;100.00;52429.75;5016361;28;19969;-68
2023/09/30 06:14:42;;;;;;;;;;;;;;;-144.99;100.00;52415.47;5016914;28;19946;-65
2023/09/30 06:17:08;;;;;;;;;;;;;;;-144.99;100.00;52397.13;5014121;28;20032;-66
2023/09/30 06:19:35;;;;;;;;;;;;;;;-144.99;100.00;52419.56;5019557;28;20082;-66
2023/09/30 06:22:03;;;;;;;;;;;;;;;-144.99;100.00;52415.47;5023863;28;19967;-65
2023/09/30 06:24:29;;;;;;;;;;;;;;;-144.99;100.00;52380.84;5023316;28;20034;-68
2023/09/30 06:26:56;;;;;;;;;;;;;;;-144.99;100.00;52421.59;5022447;28;19946;-66
2023/09/30 06:29:23;;;;;;;;;;;;;;;-144.99;100.00;52399.19;5018424;28;20102;-65
2023/09/30 06:31:51;;;;;;;;;;;;;;;-144.99;100.00;52378.78;5015790;28;19959;-66
2023/09/30 06:34:17;;;;;;;;;;;;;;;-144.99;100.00;52391.03;5017788;28;19943;-67
2023/09/30 06:36:44;;;;;;;;;;;;;;;-144.99;100.00;52415.47;5017501;28;20033;-68
2023/09/30 06:39:10;;;;;;;;;;;;;;;-144.99;100.00;52399.19;5020250;28;19965;-68
2023/09/30 06:41:37;;;;;;;;;;;;;;;-144.99;100.00;52423.63;5020221;28;19939;-68
2023/09/30 06:44:04;;;;;;;;;;;;;;;-144.99;100.00;52415.47;5023114;28;20019;-66
2023/09/30 06:46:30;;;;;;;;;;;;;;;-144.99;100.00;52391.03;5032570;28;20400;-66
2023/09/30 06:48:59;;;;;;;;;;;;;;;-144.99;100.00;52366.56;5026172;28;20039;-67
2023/09/30 06:51:26;;;;;;;;;;;;;;;-144.99;100.00;52378.78;5026170;28;20606;-68
2023/09/30 06:53:53;;;;;;;;;;;;;;;-144.99;100.00;52346.19;5015314;28;20066;-68
2023/09/30 06:56:20;;;;;;;;;;;;;;;-144.99;100.00;52382.88;5019487;28;19985;-72
2023/09/30 06:58:46;;;;;;;;;;;;;;;-144.99;100.00;52362.50;5018224;28;19978;-67
2023/09/30 07:01:16;;;;;;;;;;;;;;;-144.99;100.00;52370.63;5021076;28;20062;-65
2023/09/30 07:03:42;;;;;;;;;;;;;;;-144.99;100.00;52413.44;5021312;28;19948;-67
2023/09/30 07:06:10;;;;;;;;;;;;;;;-144.99;100.00;52358.41;5019839;28;21614;-68
2023/09/30 07:08:37;;;;;;;;;;;;;;;-144.99;100.00;52364.53;5016088;28;20060;-68
2023/09/30 07:11:05;;;;;;;;;;;;;;;-144.99;100.00;52362.50;5020184;28;19971;-71
2023/09/30 07:13:31;;;;;;;;;;;;;;;-144.99;100.00;52415.47;5015350;28;20097;-69
2023/09/30 07:15:58;;;;;;;;;;;;;;;-144.99;100.00;52382.88;5017232;28;20007;-69
2023/09/30 07:18:25;;;;;;;;;;;;;;;-144.99;100.00;52368.59;5018074;28;19996;-69
2023/09/30 07:20:52;;;;;;;;;;;;;;;-144.99;100.00;52358.41;5020269;28;19961;-70
2023/09/30 07:23:20;;;;;;;;;;;;;;;-144.99;100.00;52354.34;5030384;28;20330;-69
2023/09/30 07:25:47;;;;;;;;;;;;;;;-144.99;100.00;52372.69;5024915;28;19940;-70
2023/09/30 07:28:13;;;;;;;;;;;;;;;-144.99;100.00;52391.03;5022815;28;19942;-71
2023/09/30 07:30:40;;;;;;;;;;;;;;;-144.99;100.00;52342.09;5022244;28;19994;-67
2023/09/30 07:33:07;;;;;;;;;;;;;;;-144.99;100.00;52378.78;5019187;28;19955;-69
2023/09/30 07:35:34;;;;;;;;;;;;;;;-144.99;100.00;52366.56;5017479;28;20022;-70
2023/09/30 07:38:01;;;;;;;;;;;;;;;-144.99;100.00;52366.56;5022179;28;20039;-69
2023/09/30 07:40:29;;;;;;;;;;;;;;;-144.99;100.00;52399.19;5018492;28;20441;-73
2023/09/30 07:42:55;;;;;;;;;;;;;;;-144.99;100.00;52382.88;5017804;28;19940;-71
2023/09/30 07:45:22;;;;;;;;;;;;;;;-144.99;100.00;52370.63;5015776;28;20039;-70
2023/09/30 07:47:49;;;;;;;;;;;;;;;-144.99;100.00;52358.41;5015462;28;20008;-71
2023/09/30 07:50:15;;;;;;;;;;;;;;;-144.99;100.00;52354.34;5017753;28;19959;-71
2023/09/30 07:52:42;;;;;;;;;;;;;;;-144.99;100.00;52338.03;5027885;28;19960;-71
2023/09/30 07:55:09;;;;;;;;;;;;;;;-144.99;100.00;52370.63;5018783;28;19948;-71
2023/09/30 07:57:38;;;;;;;;;;;;;;;-144.99;100.00;52329.88;5020108;28;19983;-72
2023/09/30 08:00:09;;;;;;;;;;;;;;;-144.99;100.00;52342.09;5022000;28;19954;-72
2023/09/30 08:02:36;;;;;;;;;;;;;;;-144.99;100.00;52340.06;5030316;28;20269;-72
2023/09/30 08:05:02;;;;;;;;;;;;;;;-144.99;100.00;52366.56;5016813;28;19961;-70
2023/09/30 08:07:29;;;;;;;;;;;;;;;-144.99;100.00;52382.88;5018837;28;20038;-70
2023/09/30 08:09:55;;;;;;;;;;;;;;;-144.99;99.03;52327.84;5018357;28;20153;-71
2023/09/30 08:12:22;;;;;;;;;;;;;;;-144.99;98.54;52344.16;5038454;23;20061;-68
2023/09/30 08:14:51;;;;;;;;;;;;;;;-144.99;99.29;52358.41;5037943;28;19965;-69
2023/09/30 08:17:18;;;;;;;;;;;;;;;-144.99;97.98;52321.72;5038196;28;20115;-70
2023/09/30 08:19:46;;;;;;;;;;;;;;;-144.99;97.57;52342.09;5029406;28;19966;-73
2023/09/30 08:22:13;;;;;;;;;;;;;;;-144.99;97.14;52358.41;5019799;28;19953;-71
2023/09/30 08:24:39;;;;;;;;;;;;;;;-144.99;96.38;52331.91;5035732;28;19951;-71
2023/09/30 08:27:06;;;;;;;;;;;;;;;-144.99;95.58;52358.41;5033164;28;19939;-72
2023/09/30 08:29:34;;;;;;;;;;;;;;;-144.99;96.00;52329.88;5022553;28;20056;-72
2023/09/30 08:32:02;;;;;;;;;;;;;;;-144.99;94.10;52336.00;5022957;28;19950;-72
2023/09/30 08:34:29;;;;;;;;;;;;;;;-144.99;93.87;52370.63;5016659;28;19946;-64
2023/09/30 08:36:54;;;;;;;;;;;;;;;-144.99;93.68;52313.56;5016224;28;20042;-68
2023/09/30 08:39:21;;;;;;;;;;;;;;;-144.99;92.98;52301.34;5015054;28;20059;-69
2023/09/30 08:41:47;;;;;;;;;;;;;;;-144.99;92.38;52305.41;5018993;28;20391;-67
2023/09/30 08:44:14;;;;;;;;;;;;;;;-144.99;93.35;52325.81;5029865;28;20037;-67
2023/09/30 08:46:41;;;;;;;;;;;;;;;-144.99;93.54;52366.56;5023439;28;19991;-67
2023/09/30 08:49:09;;;;;;;;;;;;;;;-144.99;92.88;52327.84;5024394;28;20425;-67
2023/09/30 08:51:36;;;;;;;;;;;;;;;-144.99;92.63;52333.94;5028217;28;20471;-69
2023/09/30 08:54:03;;;;;;;;;;;;;;;-144.99;92.15;52329.88;5022198;28;19965;-67
2023/09/30 08:56:32;;;;;;;;;;;;;;;-144.99;90.99;52295.22;5023484;28;19945;-68
2023/09/30 08:58:59;;;;;;;;;;;;;;;-144.99;90.25;52325.81;5022336;28;19940;-67
2023/09/30 09:01:27;;;;;;;;;;;;;;;-144.99;88.58;52317.66;5023060;28;20053;-67
2023/09/30 09:03:53;;;;;;;;;;;;;;;-144.99;88.12;52301.34;5027538;28;19950;-68
2023/09/30 09:06:22;;;;;;;;;;;;;;;-144.99;86.95;52248.34;5024362;28;19980;-67
2023/09/30 09:08:48;;;;;;;;;;;;;;;-144.99;86.10;52264.66;5023369;28;19945;-68
2023/09/30 09:11:15;;;;;;;;;;;;;;;-144.99;86.42;52305.41;5030267;28;20002;-68
2023/09/30 09:13:49;;;;;;;;;;;;;;;-144.99;85.83;52309.50;5025986;28;20117;-68
2023/09/30 09:16:18;;;;;;;;;;;;;;;-144.99;85.27;52305.41;5025278;28;20014;-69
2023/09/30 09:18:46;;;;;;;;;;;;;;;-144.99;86.20;52317.66;5023096;28;20035;-68
2023/09/30 09:21:13;;;;;;;;;;;;;;;-144.99;84.96;52293.19;5024774;28;19961;-69
2023/09/30 09:23:42;;;;;;;;;;;;;;;-144.99;85.23;52278.91;5028677;28;19944;-68
2023/09/30 09:26:08;;;;;;;;;;;;;;;-144.99;85.05;52333.94;5031350;28;19971;-68
2023/09/30 09:28:36;;;;;;;;;;;;;;;-144.99;85.29;52297.25;5032586;28;19994;-68
2023/09/30 09:31:03;;;;;;;;;;;;;;;-144.99;85.02;52311.53;5031304;28;20015;-68
2023/09/30 09:33:36;;;;;;;;;;;;;;;-144.99;83.61;52297.25;5022352;28;19964;-67
2023/09/30 09:36:02;;;;;;;;;;;;;;;-144.99;83.74;52276.88;5018090;28;19946;-68
2023/09/30 09:38:44;;;;;;;;;;;;;;;-144.99;83.61;52297.25;5028269;28;19988;-69
2023/09/30 09:41:11;;;;;;;;;;;;;;;-144.99;82.83;52313.56;5024104;28;19954;-66
2023/09/30 09:43:38;;;;;;;;;;;;;;;-144.99;82.17;52313.56;5031527;28;19971;-68
2023/09/30 09:46:08;;;;;;;;;;;;;;;-144.99;81.22;52287.06;5030379;28;19977;-69
2023/09/30 09:48:35;;;;;;;;;;;;;;;-144.99;80.18;52285.03;5023720;28;20097;-66
2023/09/30 09:51:02;;;;;;;;;;;;;;;-144.99;80.00;52264.66;5029362;28;19955;-68
2023/09/30 09:53:30;;;;;;;;;;;;;;;-144.99;79.25;52256.50;5028879;28;19956;-68
2023/09/30 09:55:57;;;;;;;;;;;;;;;-144.99;78.50;52297.25;5029621;28;19994;-68
2023/09/30 09:58:25;;;;;;;;;;;;;;;-144.99;76.42;52266.69;5028276;28;20014;-68
2023/09/30 10:00:52;;;;;;;;;;;;;;;-144.99;73.38;52240.19;5029980;28;20005;-68
2023/09/30 10:03:19;;;;;;;;;;;;;;;-144.99;73.56;52227.97;5028804;28;19976;-69
2023/09/30 10:05:46;;;;;;;;;;;;;;;-144.99;74.26;52246.31;5029486;28;19996;-68
2023/09/30 10:08:17;;;;;;;;;;;;;;;-144.99;73.68;52264.66;5033065;28;20348;-68
2023/09/30 10:10:45;;;;;;;;;;;;;;;-144.99;72.46;52199.44;5030555;28;20066;-69
2023/09/30 10:13:39;;;;;;;;;;;;;;;-144.99;71.74;52174.97;5030124;28;20496;-68
2023/09/30 10:16:07;;;;;;;;;;;;;;;-144.99;71.16;52191.28;5032029;28;20037;-68
2023/09/30 10:18:53;;;;;;;;;;;;;;;-144.99;69.30;52181.09;5032730;28;19998;-68
2023/09/30 10:21:20;;;;;;;;;;;;;;;-144.99;67.98;52174.97;5028261;28;19990;-68
2023/09/30 10:23:46;;;;;;;;;;;;;;;-144.99;68.88;52158.66;5032977;28;19987;-68
2023/09/30 10:26:17;;;;;;;;;;;;;;;-144.99;67.25;52121.97;5033464;28;19940;-68
2023/09/30 10:28:46;;;;;;;;;;;;;;;-144.99;67.61;52126.06;5028847;28;19950;-68
2023/09/30 10:31:16;;;;;;;;;;;;;;;-144.99;68.24;52154.59;5028169;28;20050;-68
2023/09/30 10:34:01;;;;;;;;;;;;;;;-144.99;67.11;52134.22;5023780;28;19955;-67
2023/09/30 10:36:29;;;;;;;;;;;;;;;-144.99;65.98;52109.75;5031152;28;20654;-68
2023/09/30 10:38:55;;;;;;;;;;;;;;;-144.99;65.52;52130.13;5031834;28;20318;-67
2023/09/30 10:41:37;;;;;;;;;;;;;;;-144.99;64.55;52089.38;5032204;28;19938;-69
2023/09/30 10:44:18;;;;;;;;;;;;;;;-144.99;64.05;52105.69;5031953;28;19992;-68
2023/09/30 10:46:46;;;;;;;;;;;;;;;-144.99;65.98;52146.44;5024756;28;20022;-67
2023/09/30 10:49:17;;;;;;;;;;;;;;;-144.99;67.06;52183.13;5031168;28;20371;-69
2023/09/30 10:51:44;;;;;;;;;;;;;;;-144.99;67.35;52160.72;5028829;28;19941;-69
2023/09/30 10:54:13;;;;;;;;;;;;;;;-144.99;67.24;52152.56;5028768;28;19998;-68
2023/09/30 10:56:39;;;;;;;;;;;;;;;-144.99;67.12;52138.28;5031416;28;19959;-69
2023/09/30 10:59:06;;;;;;;;;;;;;;;-144.99;67.19;52166.81;5028762;28;19984;-68
2023/09/30 11:01:33;;;;;;;;;;;;;;;-144.99;67.41;52121.97;5031593;28;20518;-68
2023/09/30 11:04:04;;;;;;;;;;;;;;;-144.99;66.40;52146.44;5028735;28;19945;-69
2023/09/30 11:06:31;;;;;;;;;;;;;;;-144.99;67.00;52256.50;5029646;28;19989;-69
2023/09/30 11:08:59;;;;;;;;;;;;;;;-144.99;68.57;52146.44;5027580;28;19942;-69
2023/09/30 11:11:39;;;;;;;;;;;;;;;-144.99;67.80;52146.44;5031462;28;19943;-69
2023/09/30 11:14:17;;;;;;;;;;;;;;;-144.99;66.14;52260.56;5025266;28;20045;-69
2023/09/30 11:16:44;;;;;;;;;;;;;;;-144.99;66.07;52121.97;5026623;28;20381;-69
2023/09/30 11:19:12;;;;;;;;;;;;;;;-144.99;65.14;52162.75;5023920;28;19956;-68
2023/09/30 11:21:39;;;;;;;;;;;;;;;-144.99;65.18;52154.59;5031498;28;20283;-69
2023/09/30 11:24:06;;;;;;;;;;;;;;;-144.99;65.12;52268.72;5030000;28;19938;-68
2023/09/30 11:26:33;;;;;;;;;;;;;;;-144.99;64.87;52170.91;5030650;28;19968;-68
2023/09/30 11:29:06;;;;;;;;;;;;;;;-144.99;65.79;52166.81;5030736;28;20319;-70
2023/09/30 11:31:33;;;;;;;;;;;;;;;-144.99;66.22;52162.75;5031894;28;19999;-68
2023/09/30 11:34:03;;;;;;;;;;;;;;;-144.99;65.36;52126.06;5031675;28;20019;-68
2023/09/30 11:36:31;;;;;;;;;;;;;;;-144.99;63.62;52101.59;5031641;28;19997;-68
2023/09/30 11:38:58;;;;;;;;;;;;;;;-144.99;62.29;52073.06;5027509;28;20297;-68
2023/09/30 11:41:33;;;;;;;;;;;;;;;-144.99;61.14;52060.84;5031164;28;19974;-67
2023/09/30 11:44:01;;;;;;;;;;;;;;;-144.99;61.41;52073.06;5034904;28;19986;-69
2023/09/30 11:46:28;;;;;;;;;;;;;;;-144.99;63.06;52199.44;5031839;28;19951;-68
2023/09/30 11:48:59;;;;;;;;;;;;;;;-144.99;65.22;52203.50;5027951;28;21228;-69
2023/09/30 11:51:26;;;;;;;;;;;;;;;-144.99;65.55;52170.91;5023568;28;19949;-68
2023/09/30 11:53:54;;;;;;;;;;;;;;;-144.99;66.43;52203.50;5027329;28;20262;-69
2023/09/30 11:56:22;;;;;;;;;;;;;;;-144.99;67.54;52297.25;5028257;28;20347;-68
2023/09/30 11:58:48;;;;;;;;;;;;;;;-144.99;68.20;52146.44;5030571;28;19939;-68
2023/09/30 12:01:16;;;;;;;;;;;;;;;-144.99;67.00;52168.84;5030859;28;19939;-68
2023/09/30 12:03:42;;;;;;;;;;;;;;;-144.99;66.05;52185.16;5029253;28;19939;-68
2023/09/30 12:06:13;;;;;;;;;;;;;;;-144.99;65.42;52285.03;5030807;28;19965;-70
2023/09/30 12:08:40;;;;;;;;;;;;;;;-144.99;65.17;52115.88;5030820;28;19941;-68
2023/09/30 12:11:07;;;;;;;;;;;;;;;-144.99;65.04;52124.03;5023886;28;20057;-68
2023/09/30 12:13:34;;;;;;;;;;;;;;;-144.99;63.30;52109.75;5023412;28;19962;-70
2023/09/30 12:16:00;;;;;;;;;;;;;;;-144.99;61.33;52215.75;5031823;28;19967;-68
2023/09/30 12:18:28;;;;;;;;;;;;;;;-144.99;62.09;52227.97;5022493;28;20038;-68
2023/09/30 12:20:54;;;;;;;;;;;;;;;-144.99;62.18;52236.13;5030450;28;19974;-69
2023/09/30 12:23:21;;;;;;;;;;;;;;;-144.99;63.09;52170.91;5042852;28;19937;-68